createdAt,value
2023-11-28T00:01:55.815Z,4.10
2023-11-28T00:04:25.172Z,4.10
2023-11-28T00:06:55.443Z,4.10
2023-11-28T00:09:22.826Z,4.10
2023-11-28T00:11:50.426Z,4.10
2023-11-28T00:14:17.467Z,4.20
2023-11-28T00:16:44.680Z,4.20
2023-11-28T00:19:12.033Z,4.20
2023-11-28T00:21:39.215Z,4.20
2023-11-28T00:24:08.344Z,4.20
2023-11-28T00:26:36.647Z,4.20
2023-11-28T00:29:03.773Z,4.20
2023-11-28T00:31:32.018Z,4.20
2023-11-28T00:33:59.465Z,4.20
2023-11-28T00:36:26.597Z,4.30
2023-11-28T00:38:54.356Z,4.30
2023-11-28T00:41:21.516Z,4.20
2023-11-28T00:43:49.187Z,4.30
2023-11-28T00:46:19.890Z,4.30
2023-11-28T00:48:48.457Z,4.30
2023-11-28T00:51:18.459Z,4.30
2023-11-28T00:53:45.746Z,4.20
2023-11-28T00:56:20.483Z,4.20
2023-11-28T00:58:50.298Z,4.30
2023-11-28T01:01:19.488Z,4.20
2023-11-28T01:03:47.053Z,4.20
2023-11-28T01:06:15.048Z,4.20
2023-11-28T01:08:42.127Z,4.30
2023-11-28T01:11:09.408Z,4.30
2023-11-28T01:13:36.565Z,4.20
2023-11-28T01:16:04.720Z,4.30
2023-11-28T01:18:31.751Z,4.30
2023-11-28T01:20:58.773Z,4.30
2023-11-28T01:23:25.832Z,4.20
2023-11-28T01:25:52.848Z,4.30
2023-11-28T01:28:19.858Z,4.20
2023-11-28T01:30:46.843Z,4.20
2023-11-28T01:33:13.889Z,4.20
2023-11-28T01:35:41.267Z,4.20
2023-11-28T01:38:08.241Z,4.20
2023-11-28T01:40:35.370Z,4.10
2023-11-28T01:43:02.394Z,4.20
2023-11-28T01:45:29.467Z,4.20
2023-11-28T01:47:58.427Z,4.20
2023-11-28T01:50:25.675Z,4.10
2023-11-28T01:52:53.229Z,4.20
2023-11-28T01:55:20.615Z,4.20
2023-11-28T01:57:50.076Z,4.20
2023-11-28T02:00:17.736Z,4.20
2023-11-28T02:02:45.086Z,4.20
2023-11-28T02:05:13.647Z,4.20
2023-11-28T02:07:42.886Z,4.20
2023-11-28T02:10:11.082Z,4.20
2023-11-28T02:12:38.172Z,4.20
2023-11-28T02:15:05.837Z,4.20
2023-11-28T02:17:33.463Z,4.10
2023-11-28T02:20:00.703Z,4.10
2023-11-28T02:22:28.342Z,4.10
2023-11-28T02:24:58.383Z,4.10
2023-11-28T02:27:25.427Z,4.00
2023-11-28T02:29:52.946Z,4.00
2023-11-28T02:32:20.917Z,4.00
2023-11-28T02:34:48.469Z,4.00
2023-11-28T02:37:15.728Z,4.00
2023-11-28T02:39:42.799Z,4.00
2023-11-28T02:42:09.799Z,4.00
2023-11-28T02:44:36.769Z,4.10
2023-11-28T02:47:03.917Z,4.10
2023-11-28T02:49:31.067Z,4.00
2023-11-28T02:51:58.418Z,4.00
2023-11-28T02:54:25.582Z,4.00
2023-11-28T02:56:52.863Z,4.00
2023-11-28T02:59:19.904Z,3.90
2023-11-28T03:01:47.021Z,3.90
2023-11-28T03:04:14.101Z,3.90
2023-11-28T03:06:41.220Z,3.90
2023-11-28T03:09:08.627Z,3.90
2023-11-28T03:11:35.596Z,3.90
2023-11-28T03:14:03.834Z,4.00
2023-11-28T03:16:30.921Z,4.00
2023-11-28T03:18:58.011Z,4.00
2023-11-28T03:21:25.006Z,4.00
2023-11-28T03:23:52.079Z,4.00
2023-11-28T03:26:19.078Z,4.00
2023-11-28T03:28:46.181Z,4.00
2023-11-28T03:31:13.372Z,4.00
2023-11-28T03:33:40.417Z,4.00
2023-11-28T03:36:15.900Z,4.00
2023-11-28T03:38:42.915Z,3.90
2023-11-28T03:41:12.932Z,3.90
2023-11-28T03:43:40.050Z,3.90
2023-11-28T03:46:07.288Z,3.90
2023-11-28T03:48:34.351Z,4.00
2023-11-28T03:51:01.371Z,3.90
2023-11-28T03:53:28.411Z,3.90
2023-11-28T03:55:55.425Z,3.90
2023-11-28T03:58:24.556Z,3.90
2023-11-28T04:00:51.885Z,3.90
2023-11-28T04:03:19.097Z,4.00
2023-11-28T04:05:47.243Z,4.00
2023-11-28T04:08:14.266Z,4.00
2023-11-28T04:10:41.340Z,4.00
2023-11-28T04:13:08.315Z,4.00
2023-11-28T04:15:35.326Z,4.10
2023-11-28T04:18:02.618Z,4.10
2023-11-28T04:20:29.681Z,4.10
2023-11-28T04:22:56.767Z,4.10
2023-11-28T04:25:24.751Z,4.20
2023-11-28T04:27:53.095Z,4.10
2023-11-28T04:30:20.233Z,4.10
2023-11-28T04:32:47.407Z,4.20
2023-11-28T04:35:14.586Z,4.20
2023-11-28T04:37:41.739Z,4.20
2023-11-28T04:40:09.374Z,4.20
2023-11-28T04:42:36.741Z,4.10
2023-11-28T04:45:04.379Z,4.10
2023-11-28T04:47:31.498Z,4.10
2023-11-28T04:49:59.441Z,4.10
2023-11-28T04:52:26.515Z,4.20
2023-11-28T04:54:53.576Z,4.20
2023-11-28T04:57:20.682Z,4.20
2023-11-28T04:59:47.755Z,4.30
2023-11-28T05:02:14.961Z,4.30
2023-11-28T05:04:42.133Z,4.30
2023-11-28T05:07:09.412Z,4.30
2023-11-28T05:09:36.414Z,4.30
2023-11-28T05:12:03.658Z,4.30
2023-11-28T05:14:31.672Z,4.30
2023-11-28T05:16:58.970Z,4.30
2023-11-28T05:19:26.171Z,4.20
2023-11-28T05:21:55.184Z,4.20
2023-11-28T05:24:22.234Z,4.20
2023-11-28T05:26:49.307Z,4.20
2023-11-28T05:29:16.376Z,4.20
2023-11-28T05:31:44.829Z,4.20
2023-11-28T05:34:12.857Z,4.20
2023-11-28T05:36:40.128Z,4.20
2023-11-28T05:39:07.519Z,4.20
2023-11-28T05:41:34.594Z,4.20
2023-11-28T05:44:01.909Z,4.20
2023-11-28T05:46:29.943Z,4.20
2023-11-28T05:48:57.057Z,4.20
2023-11-28T05:51:24.153Z,4.20
2023-11-28T05:53:51.292Z,4.20
2023-11-28T05:56:19.215Z,4.30
2023-11-28T05:58:46.385Z,4.30
2023-11-28T06:01:16.616Z,4.30
2023-11-28T06:03:44.260Z,4.20
2023-11-28T06:06:11.584Z,4.20
2023-11-28T06:08:38.714Z,4.20
2023-11-28T06:11:06.145Z,4.20
2023-11-28T06:13:33.259Z,4.20
2023-11-28T06:16:00.370Z,4.20
2023-11-28T06:18:27.737Z,4.20
2023-11-28T06:20:54.772Z,4.20
2023-11-28T06:23:22.030Z,4.30
2023-11-28T06:25:49.155Z,4.30
2023-11-28T06:28:16.295Z,4.30
2023-11-28T06:30:43.806Z,4.30
2023-11-28T06:33:11.071Z,4.30
2023-11-28T06:35:38.324Z,4.30
2023-11-28T06:38:05.491Z,4.30
2023-11-28T06:40:34.270Z,4.30
2023-11-28T06:43:01.426Z,4.40
2023-11-28T06:45:28.689Z,4.30
2023-11-28T06:47:55.976Z,4.30
2023-11-28T06:50:23.418Z,4.30
2023-11-28T06:52:50.784Z,4.30
2023-11-28T06:55:21.135Z,4.30
2023-11-28T06:57:50.178Z,4.30
2023-11-28T07:00:17.933Z,4.30
2023-11-28T07:02:45.184Z,4.30
2023-11-28T07:05:13.310Z,4.40
2023-11-28T07:07:40.988Z,4.40
2023-11-28T07:10:09.925Z,4.40
2023-11-28T07:12:37.098Z,4.40
2023-11-28T07:15:05.811Z,4.50
2023-11-28T07:17:34.195Z,4.40
2023-11-28T07:20:02.845Z,4.40
2023-11-28T07:22:30.057Z,4.50
2023-11-28T07:24:58.834Z,4.50
2023-11-28T07:27:28.154Z,4.60
2023-11-28T07:29:55.232Z,4.60
2023-11-28T07:32:22.411Z,4.60
2023-11-28T07:34:49.692Z,4.60
2023-11-28T07:37:17.418Z,4.60
2023-11-28T07:39:44.574Z,4.60
2023-11-28T07:42:11.711Z,4.60
2023-11-28T07:44:39.771Z,4.70
2023-11-28T07:47:06.953Z,4.70
2023-11-28T07:49:33.954Z,4.70
2023-11-28T07:52:01.230Z,4.70
2023-11-28T07:54:28.814Z,4.80
2023-11-28T07:56:56.074Z,4.80
2023-11-28T07:59:23.207Z,4.80
2023-11-28T08:01:50.472Z,4.80
2023-11-28T08:04:17.818Z,4.80
2023-11-28T08:06:44.934Z,4.80
2023-11-28T08:09:12.310Z,4.80
2023-11-28T08:11:39.841Z,4.90
2023-11-28T08:14:08.746Z,4.90
2023-11-28T08:16:37.315Z,4.90
2023-11-28T08:19:04.713Z,4.90
2023-11-28T08:21:31.903Z,5.00
2023-11-28T08:24:00.143Z,5.00
2023-11-28T08:26:27.385Z,5.10
2023-11-28T08:28:56.675Z,5.10
2023-11-28T08:31:24.644Z,5.10
2023-11-28T08:33:52.066Z,5.10
2023-11-28T08:36:19.312Z,5.20
2023-11-28T08:38:46.370Z,5.20
2023-11-28T08:41:13.527Z,5.20
2023-11-28T08:43:40.760Z,5.30
2023-11-28T08:46:08.260Z,5.30
2023-11-28T08:48:35.495Z,5.40
2023-11-28T08:51:02.573Z,5.30
2023-11-28T08:53:29.992Z,5.30
2023-11-28T08:55:57.145Z,5.30
2023-11-28T08:58:24.314Z,5.40
2023-11-28T09:00:54.818Z,5.50
2023-11-28T09:03:23.074Z,5.50
2023-11-28T09:05:50.507Z,5.50
2023-11-28T09:08:17.758Z,5.60
2023-11-28T09:10:44.973Z,5.60
2023-11-28T09:13:12.142Z,5.60
2023-11-28T09:15:39.261Z,5.70
2023-11-28T09:18:06.390Z,5.80
2023-11-28T09:20:33.666Z,5.80
2023-11-28T09:23:00.836Z,5.80
2023-11-28T09:25:27.940Z,5.90
2023-11-28T09:27:55.523Z,5.90
2023-11-28T09:30:22.900Z,5.90
2023-11-28T09:32:50.175Z,5.90
2023-11-28T09:35:17.546Z,6.00
2023-11-28T09:37:44.894Z,6.00
2023-11-28T09:40:12.381Z,6.00
2023-11-28T09:42:45.704Z,6.10
2023-11-28T09:45:14.996Z,6.10
2023-11-28T09:47:44.895Z,6.20
2023-11-28T09:50:14.381Z,6.20
2023-11-28T09:52:45.615Z,6.30
2023-11-28T09:55:16.421Z,6.30
2023-11-28T09:57:47.431Z,6.40
2023-11-28T10:00:21.904Z,6.40
2023-11-28T10:02:56.258Z,6.40
2023-11-28T10:05:23.938Z,6.40
2023-11-28T10:07:55.549Z,6.40
2023-11-28T10:10:24.199Z,6.40
2023-11-28T10:12:53.034Z,6.40
2023-11-28T10:15:22.503Z,6.40
2023-11-28T10:17:51.046Z,6.40
2023-11-28T10:20:22.818Z,6.40
2023-11-28T10:22:52.775Z,6.40
2023-11-28T10:25:23.839Z,6.40
2023-11-28T10:27:52.232Z,6.50
2023-11-28T10:30:25.281Z,6.50
2023-11-28T10:32:52.467Z,6.50
2023-11-28T10:35:19.928Z,6.50
2023-11-28T10:37:47.711Z,6.60
2023-11-28T10:40:19.531Z,6.70
2023-11-28T10:42:46.785Z,6.70
2023-11-28T10:45:17.701Z,6.70
2023-11-28T10:47:45.788Z,6.70
2023-11-28T10:50:15.668Z,6.70
2023-11-28T10:52:48.373Z,6.70
2023-11-28T10:55:21.280Z,6.60
2023-11-28T10:58:00.218Z,6.60
2023-11-28T11:00:28.183Z,6.70
2023-11-28T11:02:57.385Z,6.70
2023-11-28T11:05:25.349Z,6.80
2023-11-28T11:07:53.830Z,6.90
2023-11-28T11:10:20.894Z,6.80
2023-11-28T11:12:54.911Z,6.90
2023-11-28T11:15:29.577Z,6.80
2023-11-28T11:18:24.114Z,6.90
2023-11-28T11:20:56.712Z,6.90
2023-11-28T11:23:27.521Z,7.00
2023-11-28T11:25:54.802Z,6.90
2023-11-28T11:28:23.194Z,6.90
2023-11-28T11:30:50.338Z,6.90
2023-11-28T11:33:25.698Z,6.90
2023-11-28T11:36:07.090Z,7.00
2023-11-28T11:38:34.793Z,6.90
2023-11-28T11:41:03.193Z,7.00
2023-11-28T11:43:35.515Z,6.90
2023-11-28T11:46:28.909Z,7.00
2023-11-28T11:48:56.155Z,7.00
2023-11-28T11:51:24.282Z,7.10
2023-11-28T11:53:52.421Z,7.10
2023-11-28T11:56:22.409Z,7.20
2023-11-28T11:58:49.678Z,7.10
2023-11-28T12:01:17.682Z,7.00
2023-11-28T12:03:45.058Z,7.00
2023-11-28T12:06:12.544Z,7.00
2023-11-28T12:08:39.885Z,7.00
2023-11-28T12:11:10.716Z,7.10
2023-11-28T12:13:40.205Z,7.10
2023-11-28T12:16:07.912Z,7.10
2023-11-28T12:18:36.281Z,7.20
2023-11-28T12:21:05.704Z,7.20
2023-11-28T12:23:32.900Z,7.20
2023-11-28T12:26:00.232Z,7.20
2023-11-28T12:28:28.484Z,7.20
2023-11-28T12:30:57.660Z,7.20
2023-11-28T12:33:25.552Z,7.30
2023-11-28T12:35:53.442Z,7.40
2023-11-28T12:38:20.809Z,7.40
2023-11-28T12:40:54.612Z,7.40
2023-11-28T12:43:27.254Z,7.40
2023-11-28T12:45:58.975Z,7.40
2023-11-28T12:48:27.700Z,7.40
2023-11-28T12:50:55.116Z,7.30
2023-11-28T12:53:26.194Z,7.40
2023-11-28T12:55:53.544Z,7.40
2023-11-28T12:58:23.874Z,7.40
2023-11-28T13:00:51.164Z,7.40
2023-11-28T13:03:18.539Z,7.40
2023-11-28T13:05:45.690Z,7.40
2023-11-28T13:08:13.698Z,7.40
2023-11-28T13:10:40.817Z,7.40
2023-11-28T13:13:14.707Z,7.40
2023-11-28T13:15:45.236Z,7.40
2023-11-28T13:18:12.600Z,7.40
2023-11-28T13:20:40.020Z,7.40
2023-11-28T13:23:07.199Z,7.40
2023-11-28T13:25:34.521Z,7.40
2023-11-28T13:28:02.999Z,7.30
2023-11-28T13:30:30.209Z,7.30
2023-11-28T13:33:00.514Z,7.30
2023-11-28T13:35:28.222Z,7.30
2023-11-28T13:37:55.628Z,7.30
2023-11-28T13:40:22.812Z,7.20
2023-11-28T13:42:49.817Z,7.20
2023-11-28T13:45:16.929Z,7.20
2023-11-28T13:47:45.289Z,7.20
2023-11-28T13:50:12.623Z,7.30
2023-11-28T13:52:39.759Z,7.30
2023-11-28T13:55:07.102Z,7.40
2023-11-28T13:57:37.180Z,7.40
2023-11-28T14:00:05.888Z,7.40
2023-11-28T14:02:39.947Z,7.40
2023-11-28T14:05:12.921Z,7.40
2023-11-28T14:07:40.708Z,7.40
2023-11-28T14:10:09.803Z,7.40
2023-11-28T14:12:38.743Z,7.40
2023-11-28T14:15:07.110Z,7.40
2023-11-28T14:17:38.569Z,7.30
2023-11-28T14:20:10.326Z,7.30
2023-11-28T14:22:37.820Z,7.20
2023-11-28T14:25:05.873Z,7.20
2023-11-28T14:27:32.972Z,7.20
2023-11-28T14:30:00.057Z,7.20
2023-11-28T14:32:27.240Z,7.10
2023-11-28T14:34:54.557Z,7.00
2023-11-28T14:37:21.893Z,6.90
2023-11-28T14:39:48.924Z,6.80
2023-11-28T14:42:16.032Z,6.80
2023-11-28T14:44:44.049Z,6.70
2023-11-28T14:47:11.290Z,6.50
2023-11-28T14:49:38.610Z,6.40
2023-11-28T14:52:06.724Z,6.30
2023-11-28T14:54:33.774Z,6.10
2023-11-28T14:57:00.959Z,6.10
2023-11-28T14:59:28.204Z,6.10
2023-11-28T15:01:55.986Z,6.00
2023-11-28T15:04:23.323Z,6.00
2023-11-28T15:06:53.380Z,6.00
2023-11-28T15:09:20.509Z,5.90
2023-11-28T15:11:47.692Z,5.90
2023-11-28T15:14:14.846Z,5.90
2023-11-28T15:16:41.990Z,5.90
2023-11-28T15:19:09.554Z,5.80
2023-11-28T15:21:36.780Z,5.80
2023-11-28T15:24:04.757Z,5.70
2023-11-28T15:26:32.150Z,5.60
2023-11-28T15:28:59.300Z,5.70
2023-11-28T15:31:26.407Z,5.70
2023-11-28T15:33:53.668Z,5.70
2023-11-28T15:36:20.955Z,5.70
2023-11-28T15:38:48.145Z,5.70
2023-11-28T15:41:15.225Z,5.70
2023-11-28T15:43:42.374Z,5.70
2023-11-28T15:46:09.418Z,5.70
2023-11-28T15:48:36.546Z,5.60
2023-11-28T15:51:03.725Z,5.70
2023-11-28T15:53:30.834Z,5.60
2023-11-28T15:55:58.039Z,5.60
2023-11-28T15:58:25.195Z,5.60
2023-11-28T16:00:52.244Z,5.70
2023-11-28T16:03:19.339Z,5.60
2023-11-28T16:05:47.810Z,5.70
2023-11-28T16:08:14.957Z,5.70
2023-11-28T16:10:42.982Z,5.70
2023-11-28T16:13:10.107Z,5.70
2023-11-28T16:15:37.196Z,5.70
2023-11-28T16:18:04.504Z,5.70
2023-11-28T16:20:34.176Z,5.60
2023-11-28T16:23:01.950Z,5.70
2023-11-28T16:25:29.112Z,5.70
2023-11-28T16:27:56.528Z,5.70
2023-11-28T16:30:23.780Z,5.60
2023-11-28T16:32:50.953Z,5.60
2023-11-28T16:35:18.140Z,5.60
2023-11-28T16:37:45.212Z,5.60
2023-11-28T16:40:12.480Z,5.60
2023-11-28T16:42:40.280Z,5.50
2023-11-28T16:45:07.802Z,5.50
2023-11-28T16:47:35.003Z,5.50
2023-11-28T16:50:02.266Z,5.50
2023-11-28T16:52:29.416Z,5.40
2023-11-28T16:54:56.499Z,5.40
2023-11-28T16:57:24.560Z,5.40
2023-11-28T16:59:52.052Z,5.30
2023-11-28T17:02:19.421Z,5.20
2023-11-28T17:04:46.760Z,5.20
2023-11-28T17:07:13.886Z,5.10
2023-11-28T17:09:40.956Z,5.10
2023-11-28T17:12:08.359Z,5.10
2023-11-28T17:14:35.570Z,5.10
2023-11-28T17:17:04.694Z,5.10
2023-11-28T17:19:31.877Z,5.10
2023-11-28T17:21:59.022Z,5.10
2023-11-28T17:24:27.578Z,5.00
2023-11-28T17:26:54.875Z,5.10
2023-11-28T17:29:22.413Z,5.10
2023-11-28T17:31:52.122Z,5.00
2023-11-28T17:34:19.337Z,5.00
2023-11-28T17:36:46.477Z,4.90
2023-11-28T17:39:13.946Z,4.90
2023-11-28T17:41:41.276Z,4.90
2023-11-28T17:44:08.992Z,4.90
2023-11-28T17:46:36.082Z,4.90
2023-11-28T17:49:03.329Z,4.90
2023-11-28T17:51:31.237Z,4.80
2023-11-28T17:53:58.737Z,4.80
2023-11-28T17:56:26.077Z,4.80
2023-11-28T17:58:53.537Z,4.70
2023-11-28T18:01:21.205Z,4.70
2023-11-28T18:03:48.421Z,4.70
2023-11-28T18:06:15.580Z,4.60
2023-11-28T18:08:43.039Z,4.60
2023-11-28T18:11:11.692Z,4.60
2023-11-28T18:13:40.363Z,4.60
2023-11-28T18:16:07.548Z,4.60
2023-11-28T18:18:34.819Z,4.50
2023-11-28T18:21:11.721Z,4.60
2023-11-28T18:23:46.534Z,4.50
2023-11-28T18:26:14.172Z,4.40
2023-11-28T18:28:41.704Z,4.40
2023-11-28T18:31:09.207Z,4.30
2023-11-28T18:33:38.040Z,4.30
2023-11-28T18:36:09.559Z,4.20
2023-11-28T18:38:45.500Z,4.20
2023-11-28T18:41:18.025Z,4.20
2023-11-28T18:43:45.620Z,4.10
2023-11-28T18:46:17.298Z,4.10
2023-11-28T18:48:45.815Z,4.10
2023-11-28T18:51:18.401Z,4.00
2023-11-28T18:53:48.211Z,4.00
2023-11-28T18:56:28.844Z,4.00
2023-11-28T18:58:57.152Z,4.00
2023-11-28T19:01:29.833Z,3.90
2023-11-28T19:03:59.133Z,3.90
2023-11-28T19:06:30.553Z,3.80
2023-11-28T19:09:01.198Z,3.80
2023-11-28T19:11:30.029Z,3.80
2023-11-28T19:14:05.664Z,3.70
2023-11-28T19:16:35.849Z,3.70
2023-11-28T19:19:03.712Z,3.60
2023-11-28T19:21:31.783Z,3.50
2023-11-28T19:24:00.280Z,3.50
2023-11-28T19:26:28.466Z,3.40
2023-11-28T19:28:56.401Z,3.40
2023-11-28T19:31:24.391Z,3.40
2023-11-28T19:33:53.461Z,3.30
2023-11-28T19:36:21.354Z,3.30
2023-11-28T19:38:52.129Z,3.20
2023-11-28T19:41:20.775Z,3.20
2023-11-28T19:43:48.807Z,3.10
2023-11-28T19:46:16.844Z,3.10
2023-11-28T19:48:46.456Z,3.10
2023-11-28T19:51:14.619Z,3.10
2023-11-28T19:53:42.870Z,3.10
2023-11-28T19:56:11.279Z,3.00
2023-11-28T19:58:41.381Z,3.00
2023-11-28T20:01:10.255Z,2.90
2023-11-28T20:03:40.218Z,2.90
2023-11-28T20:06:09.088Z,2.80
2023-11-28T20:08:37.772Z,2.80
2023-11-28T20:11:06.135Z,2.80
2023-11-28T20:13:34.961Z,2.80
2023-11-28T20:16:03.895Z,2.70
2023-11-28T20:18:32.274Z,2.80
2023-11-28T20:21:01.312Z,2.70
2023-11-28T20:23:30.106Z,2.70
2023-11-28T20:25:58.675Z,2.70
2023-11-28T20:28:30.040Z,2.70
2023-11-28T20:30:58.210Z,2.70
2023-11-28T20:33:26.433Z,2.70
2023-11-28T20:35:54.894Z,2.70
2023-11-28T20:38:24.765Z,2.70
2023-11-28T20:40:52.892Z,2.80
2023-11-28T20:43:20.933Z,2.70
2023-11-28T20:45:50.022Z,2.70
2023-11-28T20:48:19.089Z,2.70
2023-11-28T20:50:50.987Z,2.70
2023-11-28T20:53:19.355Z,2.70
2023-11-28T20:55:47.084Z,2.60
2023-11-28T20:58:15.472Z,2.60
2023-11-28T21:00:43.811Z,2.60
2023-11-28T21:03:11.013Z,2.60
2023-11-28T21:05:39.725Z,2.60
2023-11-28T21:08:06.985Z,2.60
2023-11-28T21:10:34.453Z,2.70
2023-11-28T21:13:01.722Z,2.70
2023-11-28T21:15:28.925Z,2.70
2023-11-28T21:17:56.132Z,2.70
2023-11-28T21:20:23.453Z,2.70
2023-11-28T21:22:51.017Z,2.60
2023-11-28T21:25:18.534Z,2.60
2023-11-28T21:27:45.676Z,2.60
2023-11-28T21:30:13.927Z,2.60
2023-11-28T21:32:41.031Z,2.60
2023-11-28T21:35:11.177Z,2.60
2023-11-28T21:37:39.275Z,2.60
2023-11-28T21:40:07.696Z,2.50
2023-11-28T21:42:35.314Z,2.50
2023-11-28T21:45:03.534Z,2.50
2023-11-28T21:47:30.685Z,2.40
2023-11-28T21:50:03.854Z,2.40
2023-11-28T21:52:32.477Z,2.40
2023-11-28T21:54:59.675Z,2.40
2023-11-28T21:57:26.722Z,2.30
2023-11-28T21:59:53.873Z,2.20
2023-11-28T22:02:23.694Z,2.10
2023-11-28T22:04:51.139Z,2.10
2023-11-28T22:07:18.134Z,2.00
2023-11-28T22:09:45.417Z,2.00
2023-11-28T22:12:12.563Z,2.00
2023-11-28T22:14:39.580Z,2.00
2023-11-28T22:17:10.183Z,2.00
2023-11-28T22:19:37.273Z,2.00
2023-11-28T22:22:04.539Z,2.00
2023-11-28T22:24:33.344Z,1.90
2023-11-28T22:27:00.417Z,1.90
2023-11-28T22:29:27.544Z,1.90
2023-11-28T22:31:54.681Z,1.90
2023-11-28T22:34:22.170Z,1.80
2023-11-28T22:36:49.302Z,1.90
2023-11-28T22:39:17.392Z,1.80
2023-11-28T22:41:44.515Z,1.80
2023-11-28T22:44:11.657Z,1.80
2023-11-28T22:46:39.934Z,1.80
2023-11-28T22:49:07.123Z,1.70
2023-11-28T22:51:35.045Z,1.70
2023-11-28T22:54:02.161Z,1.80
2023-11-28T22:56:29.268Z,1.80
2023-11-28T22:58:56.349Z,1.80
2023-11-28T23:01:24.077Z,1.80
2023-11-28T23:03:53.644Z,1.80
2023-11-28T23:06:20.937Z,1.70
2023-11-28T23:08:48.231Z,1.80
2023-11-28T23:11:15.558Z,1.80
2023-11-28T23:13:42.690Z,1.70
2023-11-28T23:16:11.422Z,1.80
2023-11-28T23:18:39.473Z,1.80
2023-11-28T23:21:07.697Z,1.80
2023-11-28T23:23:34.877Z,1.80
2023-11-28T23:26:03.097Z,1.80
2023-11-28T23:28:30.270Z,1.70
2023-11-28T23:30:57.952Z,1.70
2023-11-28T23:33:27.963Z,1.70
2023-11-28T23:35:55.155Z,1.70
2023-11-28T23:38:22.641Z,1.70
2023-11-28T23:40:49.916Z,1.70
2023-11-28T23:43:17.199Z,1.70
2023-11-28T23:45:44.405Z,1.70
2023-11-28T23:48:12.121Z,1.70
2023-11-28T23:50:39.350Z,1.70
2023-11-28T23:53:06.564Z,1.70
2023-11-28T23:55:34.694Z,1.70
2023-11-28T23:58:02.426Z,1.70
